createdAt,value
2019-02-22T00:02:37.997Z,25.63
2019-02-22T00:05:07.038Z,24.67
2019-02-22T00:07:35.118Z,25.40
2019-02-22T00:10:03.549Z,24.47
2019-02-22T00:12:31.846Z,23.17
2019-02-22T00:15:00.838Z,23.53
2019-02-22T00:17:28.901Z,22.77
2019-02-22T00:19:57.028Z,21.70
2019-02-22T00:22:25.054Z,20.83
2019-02-22T00:24:52.843Z,21.30
2019-02-22T00:27:20.610Z,20.33
2019-02-22T00:29:48.430Z,20.83
2019-02-22T00:32:16.296Z,18.60
2019-02-22T00:34:44.590Z,20.43
2019-02-22T00:37:12.377Z,19.83
2019-02-22T00:39:40.328Z,20.03
2019-02-22T00:42:08.251Z,20.43
2019-02-22T00:44:36.201Z,19.10
2019-02-22T00:47:03.948Z,20.00
2019-02-22T00:49:31.694Z,18.70
2019-02-22T00:51:59.593Z,18.37
2019-02-22T00:54:27.360Z,18.57
2019-02-22T00:56:55.201Z,19.60
2019-02-22T00:59:23.076Z,19.20
2019-02-22T01:01:50.983Z,17.30
2019-02-22T01:04:18.755Z,18.07
2019-02-22T01:06:46.563Z,19.73
2019-02-22T01:09:14.530Z,18.53
2019-02-22T01:11:42.463Z,19.43
2019-02-22T01:14:10.214Z,19.70
2019-02-22T01:16:38.040Z,18.17
2019-02-22T01:19:05.905Z,18.63
2019-02-22T01:21:33.734Z,19.27
2019-02-22T01:24:01.510Z,18.20
2019-02-22T01:26:29.500Z,18.23
2019-02-22T01:28:57.228Z,17.93
2019-02-22T01:31:25.361Z,18.23
2019-02-22T01:33:54.205Z,17.90
2019-02-22T01:36:23.076Z,18.50
2019-02-22T01:38:50.921Z,16.70
2019-02-22T01:41:18.768Z,17.57
2019-02-22T01:43:46.536Z,17.50
2019-02-22T01:46:14.487Z,16.13
2019-02-22T01:48:42.333Z,15.77
2019-02-22T01:51:10.247Z,16.33
2019-02-22T01:53:41.988Z,16.57
2019-02-22T01:56:09.904Z,15.43
2019-02-22T01:58:48.005Z,15.30
2019-02-22T02:01:07.683Z,15.53
2019-02-22T02:03:35.430Z,13.53
2019-02-22T02:06:03.256Z,14.77
2019-02-22T02:08:31.070Z,14.13
2019-02-22T02:10:58.837Z,13.07
2019-02-22T02:13:26.726Z,12.90
2019-02-22T02:15:54.691Z,12.77
2019-02-22T02:18:23.008Z,12.63
2019-02-22T02:20:51.793Z,13.20
2019-02-22T02:23:19.740Z,12.83
2019-02-22T02:25:47.580Z,11.93
2019-02-22T02:28:15.554Z,11.90
2019-02-22T02:30:43.524Z,12.10
2019-02-22T02:33:11.363Z,11.30
2019-02-22T02:35:39.126Z,10.23
2019-02-22T02:38:07.009Z,10.97
2019-02-22T02:40:34.859Z,10.00
2019-02-22T02:43:02.845Z,11.30
2019-02-22T02:45:30.779Z,11.43
2019-02-22T02:47:58.683Z,9.63
2019-02-22T02:50:26.405Z,9.63
2019-02-22T02:52:54.330Z,10.23
2019-02-22T02:55:38.318Z,9.77
2019-02-22T02:58:06.232Z,9.10
2019-02-22T03:00:33.984Z,9.73
2019-02-22T03:03:01.897Z,9.33
2019-02-22T03:05:44.189Z,9.07
2019-02-22T03:08:12.194Z,9.13
2019-02-22T03:10:40.172Z,8.70
2019-02-22T03:13:08.114Z,6.50
2019-02-22T03:15:36.066Z,3.70
2019-02-22T03:18:03.910Z,2.90
2019-02-22T03:20:31.816Z,2.90
2019-02-22T03:22:59.563Z,2.53
2019-02-22T03:25:27.365Z,2.90
2019-02-22T03:27:55.314Z,2.63
2019-02-22T03:30:23.216Z,2.73
2019-02-22T03:32:50.954Z,2.60
2019-02-22T03:35:18.758Z,2.60
2019-02-22T03:37:46.504Z,2.93
2019-02-22T03:40:14.435Z,2.87
2019-02-22T03:42:42.216Z,3.00
2019-02-22T03:45:10.659Z,2.80
2019-02-22T03:47:38.489Z,3.87
2019-02-22T03:50:06.500Z,6.63
2019-02-22T03:52:42.031Z,4.83
2019-02-22T03:55:10.033Z,3.23
2019-02-22T03:57:37.896Z,2.50
2019-02-22T04:00:06.877Z,2.90
2019-02-22T04:02:34.721Z,3.50
2019-02-22T04:05:02.726Z,3.00
2019-02-22T04:07:30.582Z,3.20
2019-02-22T04:09:58.617Z,2.70
2019-02-22T04:12:26.358Z,4.17
2019-02-22T04:14:54.353Z,5.23
2019-02-22T04:17:22.319Z,4.63
2019-02-22T04:19:50.138Z,4.87
2019-02-22T04:22:18.007Z,4.80
2019-02-22T04:24:45.840Z,4.47
2019-02-22T04:27:13.720Z,4.70
2019-02-22T04:29:41.744Z,4.97
2019-02-22T04:32:09.625Z,5.50
2019-02-22T04:34:37.407Z,6.53
2019-02-22T04:37:05.439Z,6.20
2019-02-22T04:39:33.213Z,5.57
2019-02-22T04:42:01.047Z,6.83
2019-02-22T04:44:28.817Z,7.10
2019-02-22T04:46:56.749Z,5.67
2019-02-22T04:49:24.627Z,5.97
2019-02-22T04:51:52.571Z,5.67
2019-02-22T04:54:20.336Z,6.10
2019-02-22T04:56:48.179Z,6.83
2019-02-22T04:59:15.958Z,6.23
2019-02-22T05:01:43.800Z,5.27
2019-02-22T05:04:11.581Z,5.20
2019-02-22T05:06:39.395Z,5.87
2019-02-22T05:09:07.230Z,6.10
2019-02-22T05:11:35.137Z,5.50
2019-02-22T05:14:02.984Z,5.57
2019-02-22T05:16:30.800Z,5.00
2019-02-22T05:18:58.653Z,5.50
2019-02-22T05:21:26.479Z,5.80
2019-02-22T05:23:54.252Z,6.07
2019-02-22T05:26:22.187Z,6.50
2019-02-22T05:28:50.193Z,6.37
2019-02-22T05:31:23.560Z,6.08
2019-02-22T05:33:51.327Z,6.45
2019-02-22T05:36:20.082Z,6.43
2019-02-22T05:38:47.837Z,7.28
2019-02-22T05:41:15.750Z,6.55
2019-02-22T05:43:43.558Z,6.50
2019-02-22T05:46:11.379Z,7.00
2019-02-22T05:48:39.236Z,7.20
2019-02-22T05:51:07.174Z,7.08
2019-02-22T05:53:35.132Z,7.40
2019-02-22T05:56:03.099Z,8.40
2019-02-22T05:58:31.108Z,8.43
2019-02-22T06:00:59.071Z,8.05
2019-02-22T06:03:26.909Z,8.53
2019-02-22T06:05:54.680Z,9.05
2019-02-22T06:08:22.549Z,9.58
2019-02-22T06:10:50.292Z,9.95
2019-02-22T06:13:18.120Z,9.38
2019-02-22T06:15:46.688Z,9.20
2019-02-22T06:18:14.515Z,9.65
2019-02-22T06:20:42.506Z,9.00
2019-02-22T06:23:10.329Z,9.15
2019-02-22T06:25:38.080Z,8.58
2019-02-22T06:28:05.900Z,7.62
2019-02-22T06:30:33.775Z,6.85
2019-02-22T06:33:07.548Z,7.15
2019-02-22T06:35:35.333Z,6.67
2019-02-22T06:38:03.269Z,7.28
2019-02-22T06:40:31.044Z,6.55
2019-02-22T06:42:59.000Z,6.70
2019-02-22T06:45:26.758Z,7.00
2019-02-22T06:47:54.622Z,6.85
2019-02-22T06:50:33.397Z,7.33
2019-02-22T06:52:54.420Z,6.75
2019-02-22T06:55:22.276Z,6.30
2019-02-22T06:57:51.111Z,6.40
2019-02-22T07:00:19.557Z,6.28
2019-02-22T07:02:47.464Z,7.15
2019-02-22T07:05:15.321Z,6.45
2019-02-22T07:07:43.076Z,7.20
2019-02-22T07:10:10.906Z,7.22
2019-02-22T07:12:41.997Z,6.95
2019-02-22T07:15:09.978Z,8.05
2019-02-22T07:17:37.881Z,7.72
2019-02-22T07:20:07.446Z,7.30
2019-02-22T07:22:35.313Z,7.03
2019-02-22T07:25:03.404Z,6.30
2019-02-22T07:27:31.150Z,6.67
2019-02-22T07:29:58.974Z,6.30
2019-02-22T07:32:26.830Z,9.80
2019-02-22T07:34:54.644Z,6.17
2019-02-22T07:37:23.014Z,6.47
2019-02-22T07:39:51.023Z,6.65
2019-02-22T07:42:18.972Z,6.58
2019-02-22T07:44:47.591Z,6.08
2019-02-22T07:47:15.405Z,6.17
2019-02-22T07:49:43.335Z,6.55
2019-02-22T07:52:11.188Z,7.10
2019-02-22T07:54:39.115Z,5.95
2019-02-22T07:57:06.883Z,5.72
2019-02-22T07:59:34.807Z,6.28
2019-02-22T08:02:02.674Z,6.37
2019-02-22T08:04:30.464Z,6.47
2019-02-22T08:06:58.208Z,5.87
2019-02-22T08:09:26.039Z,5.20
2019-02-22T08:11:53.912Z,4.75
2019-02-22T08:14:21.965Z,6.58
2019-02-22T08:16:49.744Z,7.00
2019-02-22T08:19:17.645Z,5.80
2019-02-22T08:21:45.401Z,7.25
2019-02-22T08:24:13.181Z,6.65
2019-02-22T08:26:41.086Z,6.67
2019-02-22T08:29:09.054Z,5.83
2019-02-22T08:31:37.181Z,5.58
2019-02-22T08:34:05.026Z,5.35
2019-02-22T08:36:32.825Z,6.17
2019-02-22T08:39:00.598Z,5.85
2019-02-22T08:41:28.495Z,6.50
2019-02-22T08:43:56.434Z,5.70
2019-02-22T08:46:24.238Z,6.33
2019-02-22T08:48:53.404Z,5.47
2019-02-22T08:51:21.227Z,5.70
2019-02-22T08:53:49.069Z,6.37
2019-02-22T08:56:16.985Z,6.12
2019-02-22T08:58:44.750Z,6.45
2019-02-22T09:01:12.679Z,6.42
2019-02-22T09:03:49.934Z,7.72
2019-02-22T09:06:10.231Z,12.13
2019-02-22T09:08:49.703Z,10.60
2019-02-22T09:11:17.698Z,7.05
2019-02-22T09:13:45.473Z,7.60
2019-02-22T09:16:13.369Z,6.85
2019-02-22T09:18:41.134Z,7.53
2019-02-22T09:21:09.867Z,6.37
2019-02-22T09:23:37.642Z,6.78
2019-02-22T09:26:05.759Z,7.47
2019-02-22T09:28:33.797Z,7.17
2019-02-22T09:31:01.832Z,6.95
2019-02-22T09:33:29.671Z,6.50
2019-02-22T09:35:57.706Z,5.85
2019-02-22T09:38:25.591Z,5.08
2019-02-22T09:40:53.432Z,5.80
2019-02-22T09:43:21.480Z,7.00
2019-02-22T09:45:49.353Z,6.80
2019-02-22T09:48:17.980Z,5.42
2019-02-22T09:50:46.233Z,5.00
2019-02-22T09:53:14.167Z,3.62
2019-02-22T09:55:42.010Z,4.53
2019-02-22T09:58:09.823Z,5.03
2019-02-22T10:00:37.685Z,4.00
2019-02-22T10:03:05.490Z,4.10
2019-02-22T10:05:33.259Z,4.25
2019-02-22T10:08:01.081Z,3.80
2019-02-22T10:10:32.525Z,3.75
2019-02-22T10:13:01.257Z,3.95
2019-02-22T10:15:29.639Z,3.52
2019-02-22T10:17:57.472Z,4.53
2019-02-22T10:20:25.218Z,5.78
2019-02-22T10:22:53.037Z,3.50
2019-02-22T10:25:20.820Z,3.30
2019-02-22T10:27:48.648Z,5.60
2019-02-22T10:30:17.219Z,4.58
2019-02-22T10:32:45.462Z,4.35
2019-02-22T10:35:13.203Z,4.12
2019-02-22T10:37:41.184Z,4.00
2019-02-22T10:40:09.142Z,3.52
2019-02-22T10:42:36.947Z,3.10
2019-02-22T10:45:05.292Z,3.17
2019-02-22T10:47:33.226Z,4.12
2019-02-22T10:50:01.124Z,4.95
2019-02-22T10:52:28.926Z,3.45
2019-02-22T10:54:56.694Z,4.25
2019-02-22T10:57:24.511Z,6.58
2019-02-22T10:59:52.359Z,4.17
2019-02-22T11:02:20.126Z,3.77
2019-02-22T11:04:48.629Z,2.83
2019-02-22T11:07:16.369Z,3.50
2019-02-22T11:09:44.213Z,3.40
2019-02-22T11:12:12.791Z,4.58
2019-02-22T11:14:40.696Z,5.87
2019-02-22T11:17:08.582Z,2.47
2019-02-22T11:19:37.326Z,2.95
2019-02-22T11:22:05.073Z,4.22
2019-02-22T11:24:34.125Z,4.40
2019-02-22T11:27:01.992Z,7.25
2019-02-22T11:29:29.998Z,4.70
2019-02-22T11:31:57.845Z,4.60
2019-02-22T11:34:25.742Z,3.15
2019-02-22T11:36:53.719Z,4.35
2019-02-22T11:39:21.628Z,4.28
2019-02-22T11:41:49.510Z,2.75
2019-02-22T11:44:17.404Z,2.75
2019-02-22T11:46:45.147Z,3.60
2019-02-22T11:49:13.154Z,3.70
2019-02-22T11:51:41.101Z,3.87
2019-02-22T11:54:08.927Z,4.47
2019-02-22T11:56:36.884Z,3.72
2019-02-22T11:59:04.815Z,3.47
2019-02-22T12:01:32.703Z,4.00
2019-02-22T12:04:00.519Z,5.50
2019-02-22T12:06:28.308Z,3.47
2019-02-22T12:08:56.110Z,5.70
2019-02-22T12:11:24.000Z,5.00
2019-02-22T12:13:51.973Z,3.23
2019-02-22T12:16:19.755Z,4.40
2019-02-22T12:18:47.607Z,4.23
2019-02-22T12:21:15.545Z,3.47
2019-02-22T12:23:43.333Z,3.60
2019-02-22T12:26:11.131Z,4.80
2019-02-22T12:28:38.919Z,5.20
2019-02-22T12:31:07.364Z,3.97
2019-02-22T12:33:35.843Z,3.50
2019-02-22T12:36:03.877Z,3.43
2019-02-22T12:38:31.755Z,3.67
2019-02-22T12:40:59.672Z,3.70
2019-02-22T12:43:28.130Z,3.73
2019-02-22T12:45:58.547Z,4.00
2019-02-22T12:48:26.941Z,4.20
2019-02-22T12:50:54.851Z,3.87
2019-02-22T12:53:23.323Z,3.40
2019-02-22T12:55:51.254Z,4.07
2019-02-22T12:58:19.154Z,3.57
2019-02-22T13:00:47.085Z,4.23
2019-02-22T13:03:14.991Z,3.90
2019-02-22T13:05:44.129Z,3.60
2019-02-22T13:08:11.912Z,4.97
2019-02-22T13:10:39.760Z,4.27
2019-02-22T13:13:07.714Z,4.10
2019-02-22T13:15:35.714Z,4.37
2019-02-22T13:18:03.473Z,5.10
2019-02-22T13:20:31.492Z,5.10
2019-02-22T13:22:59.342Z,4.43
2019-02-22T13:25:27.282Z,5.00
2019-02-22T13:27:55.025Z,4.20
2019-02-22T13:30:23.063Z,4.00
2019-02-22T13:32:50.831Z,5.87
2019-02-22T13:35:18.753Z,6.67
2019-02-22T13:37:46.518Z,8.30
2019-02-22T13:40:14.436Z,8.37
2019-02-22T13:42:42.401Z,6.53
2019-02-22T13:45:10.714Z,6.00
2019-02-22T13:47:38.757Z,4.97
2019-02-22T13:50:09.873Z,4.83
2019-02-22T13:52:37.647Z,7.03
2019-02-22T13:55:05.965Z,7.00
2019-02-22T13:57:33.767Z,8.30
2019-02-22T14:00:01.641Z,4.93
2019-02-22T14:02:29.635Z,5.10
2019-02-22T14:04:57.382Z,8.47
2019-02-22T14:07:25.284Z,6.30
2019-02-22T14:09:53.069Z,5.80
2019-02-22T14:12:20.877Z,6.67
2019-02-22T14:14:49.407Z,6.27
2019-02-22T14:17:17.230Z,5.30
2019-02-22T14:19:44.992Z,4.60
2019-02-22T14:22:12.794Z,6.40
2019-02-22T14:24:41.073Z,4.77
2019-02-22T14:27:08.868Z,4.30
2019-02-22T14:29:36.630Z,6.40
2019-02-22T14:32:04.722Z,4.70
2019-02-22T14:34:32.470Z,4.90
2019-02-22T14:37:00.299Z,5.10
2019-02-22T14:39:28.067Z,4.93
2019-02-22T14:41:55.999Z,4.97
2019-02-22T14:44:23.960Z,4.80
2019-02-22T14:46:51.838Z,4.37
2019-02-22T14:49:19.587Z,4.77
2019-02-22T14:51:47.516Z,6.73
2019-02-22T14:54:15.385Z,5.97
2019-02-22T14:56:43.311Z,7.43
2019-02-22T14:59:11.197Z,6.87
2019-02-22T15:01:39.080Z,8.70
2019-02-22T15:04:06.917Z,5.57
2019-02-22T15:06:35.036Z,5.83
2019-02-22T15:09:04.649Z,7.83
2019-02-22T15:11:32.578Z,5.47
2019-02-22T15:14:00.356Z,5.90
2019-02-22T15:16:46.335Z,5.00
2019-02-22T15:19:15.340Z,5.50
2019-02-22T15:21:43.342Z,5.57
2019-02-22T15:24:11.215Z,4.47
2019-02-22T15:26:39.009Z,5.47
2019-02-22T15:29:06.883Z,9.07
2019-02-22T15:31:36.425Z,9.60
2019-02-22T15:34:04.573Z,22.07
2019-02-22T15:36:32.393Z,24.27
2019-02-22T15:39:00.136Z,12.73
2019-02-22T15:41:27.884Z,9.97
2019-02-22T15:43:55.746Z,5.83
2019-02-22T15:46:23.673Z,8.03
2019-02-22T15:48:51.476Z,9.90
2019-02-22T15:51:19.433Z,14.83
2019-02-22T15:53:47.390Z,13.77
2019-02-22T15:56:18.327Z,9.97
2019-02-22T15:58:45.826Z,9.40
2019-02-22T16:01:14.587Z,10.23
2019-02-22T16:04:04.039Z,10.20
2019-02-22T16:06:32.474Z,8.93
2019-02-22T16:09:01.038Z,9.03
2019-02-22T16:11:28.994Z,10.60
2019-02-22T16:13:56.901Z,10.47
2019-02-22T16:16:24.782Z,8.77
2019-02-22T16:18:53.209Z,11.50
2019-02-22T16:21:20.974Z,10.93
2019-02-22T16:23:49.819Z,15.20
2019-02-22T16:26:22.055Z,7.27
2019-02-22T16:28:49.874Z,6.80
2019-02-22T16:31:17.821Z,7.07
2019-02-22T16:33:45.759Z,7.83
2019-02-22T16:36:13.652Z,9.97
2019-02-22T16:38:41.498Z,10.73
2019-02-22T16:41:09.444Z,10.23
2019-02-22T16:43:37.278Z,9.50
2019-02-22T16:46:05.231Z,9.23
2019-02-22T16:48:33.160Z,10.35
2019-02-22T16:51:01.111Z,10.80
2019-02-22T16:53:28.950Z,9.67
2019-02-22T16:55:57.234Z,10.90
2019-02-22T16:58:25.067Z,12.40
2019-02-22T17:00:52.891Z,12.33
2019-02-22T17:03:20.907Z,20.55
2019-02-22T17:05:48.768Z,22.77
2019-02-22T17:08:16.692Z,20.20
2019-02-22T17:10:44.474Z,16.73
2019-02-22T17:13:12.291Z,16.27
2019-02-22T17:15:40.175Z,10.20
2019-02-22T17:18:08.706Z,8.40
2019-02-22T17:20:36.573Z,8.33
2019-02-22T17:23:04.400Z,9.75
2019-02-22T17:25:39.498Z,10.53
2019-02-22T17:28:07.426Z,19.12
2019-02-22T17:30:35.211Z,23.20
2019-02-22T17:33:03.114Z,15.63
2019-02-22T17:35:30.967Z,13.35
2019-02-22T17:37:58.765Z,10.80
2019-02-22T17:40:26.720Z,11.03
2019-02-22T17:42:54.937Z,11.90
2019-02-22T17:47:47.900Z,12.47
2019-02-22T17:50:15.829Z,16.80
2019-02-22T17:52:43.598Z,16.97
2019-02-22T17:55:11.540Z,13.50
2019-02-22T17:57:39.761Z,12.50
2019-02-22T18:00:11.394Z,11.97
2019-02-22T18:02:40.060Z,11.60
2019-02-22T18:05:08.101Z,12.28
2019-02-22T18:07:36.019Z,13.08
2019-02-22T18:10:04.169Z,14.20
2019-02-22T18:12:31.984Z,15.70
2019-02-22T18:14:59.837Z,15.95
2019-02-22T18:17:29.514Z,101.87
2019-02-22T18:19:57.336Z,109.40
2019-02-22T18:22:26.201Z,40.43
2019-02-22T18:24:54.840Z,12.40
2019-02-22T18:27:34.316Z,18.35
2019-02-22T18:29:59.885Z,26.93
2019-02-22T18:32:27.668Z,23.45
2019-02-22T18:34:55.495Z,29.55
2019-02-22T18:37:23.251Z,29.87
2019-02-22T18:39:51.089Z,18.40
2019-02-22T18:42:19.074Z,15.63
2019-02-22T18:44:46.906Z,14.68
2019-02-22T18:47:19.343Z,13.98
2019-02-22T18:49:44.567Z,13.62
2019-02-22T18:52:12.417Z,17.15
2019-02-22T18:54:40.749Z,14.15
2019-02-22T18:57:08.496Z,12.85
2019-02-22T18:59:36.312Z,17.90
2019-02-22T19:02:04.184Z,37.48
2019-02-22T19:04:32.023Z,70.17
2019-02-22T19:07:01.088Z,188.03
2019-02-22T19:09:28.892Z,187.95
2019-02-22T19:11:56.634Z,137.75
2019-02-22T19:14:24.585Z,141.62
2019-02-22T19:16:52.352Z,109.55
2019-02-22T19:19:20.294Z,99.58
2019-02-22T19:21:48.118Z,117.72
2019-02-22T19:24:16.966Z,127.60
2019-02-22T19:26:44.827Z,111.25
2019-02-22T19:29:12.675Z,77.00
2019-02-22T19:31:40.541Z,62.00
2019-02-22T19:34:08.354Z,43.30
2019-02-22T19:36:36.107Z,35.65
2019-02-22T19:39:04.960Z,25.90
2019-02-22T19:41:32.701Z,20.50
2019-02-22T19:44:00.477Z,18.75
2019-02-22T19:46:28.372Z,236.03
2019-02-22T19:48:56.297Z,250.53
2019-02-22T19:51:24.110Z,16.05
2019-02-22T19:53:52.007Z,11.08
2019-02-22T19:56:19.939Z,9.08
2019-02-22T19:58:47.792Z,9.78
2019-02-22T20:01:18.930Z,12.40
2019-02-22T20:03:47.090Z,14.78
2019-02-22T20:06:15.058Z,16.57
2019-02-22T20:08:42.797Z,20.23
2019-02-22T20:11:10.978Z,27.67
2019-02-22T20:13:38.847Z,175.18
2019-02-22T20:16:06.888Z,136.50
2019-02-22T20:18:35.147Z,55.95
2019-02-22T20:21:03.262Z,56.85
2019-02-22T20:23:31.038Z,39.30
2019-02-22T20:25:58.969Z,30.32
2019-02-22T20:28:26.733Z,38.20
2019-02-22T20:30:54.595Z,51.08
2019-02-22T20:33:22.523Z,58.48
2019-02-22T20:35:50.950Z,60.92
2019-02-22T20:38:18.878Z,46.50
2019-02-22T20:40:46.947Z,25.62
2019-02-22T20:43:15.056Z,27.30
2019-02-22T20:45:42.891Z,29.20
2019-02-22T20:48:11.298Z,35.70
2019-02-22T20:50:39.435Z,190.43
2019-02-22T20:53:07.462Z,213.97
2019-02-22T20:55:35.497Z,35.50
2019-02-22T20:58:03.365Z,31.48
2019-02-22T21:00:31.304Z,30.55
2019-02-22T21:03:01.720Z,32.93
2019-02-22T21:05:29.556Z,35.45
2019-02-22T21:07:57.347Z,33.58
2019-02-22T21:10:25.357Z,34.85
2019-02-22T21:12:53.279Z,31.25
2019-02-22T21:15:21.211Z,26.68
2019-02-22T21:17:49.049Z,21.30
2019-02-22T21:20:17.454Z,19.57
2019-02-22T21:22:45.442Z,31.00
2019-02-22T21:25:13.767Z,35.73
2019-02-22T21:27:41.724Z,33.30
2019-02-22T21:30:11.643Z,33.18
2019-02-22T21:32:39.527Z,26.17
2019-02-22T21:35:08.442Z,22.85
2019-02-22T21:37:36.554Z,21.10
2019-02-22T21:40:04.853Z,21.40
2019-02-22T21:42:32.920Z,19.12
2019-02-22T21:45:01.006Z,18.62
2019-02-22T21:47:29.216Z,18.45
2019-02-22T21:49:57.332Z,18.48
2019-02-22T21:52:25.593Z,18.67
2019-02-22T21:54:53.330Z,18.70
2019-02-22T21:57:21.401Z,20.12
2019-02-22T21:59:49.436Z,20.52
2019-02-22T22:02:17.297Z,24.80
2019-02-22T22:04:45.081Z,26.23
2019-02-22T22:07:13.185Z,29.12
2019-02-22T22:09:41.041Z,28.45
2019-02-22T22:12:08.968Z,27.07
2019-02-22T22:14:36.740Z,28.75
2019-02-22T22:17:04.760Z,28.02
2019-02-22T22:19:32.660Z,29.75
2019-02-22T22:22:00.582Z,27.00
2019-02-22T22:24:28.328Z,28.98
2019-02-22T22:26:56.563Z,27.42
2019-02-22T22:29:25.121Z,25.92
2019-02-22T22:31:53.062Z,25.97
2019-02-22T22:34:20.803Z,22.90
2019-02-22T22:36:51.460Z,22.90
2019-02-22T22:39:19.221Z,22.15
2019-02-22T22:41:47.146Z,21.77
2019-02-22T22:44:15.508Z,20.68
2019-02-22T22:46:43.553Z,19.98
2019-02-22T22:49:11.392Z,18.00
2019-02-22T22:51:39.811Z,16.00
2019-02-22T22:54:07.669Z,17.75
2019-02-22T22:56:35.473Z,18.30
2019-02-22T22:59:03.488Z,18.15
2019-02-22T23:01:33.341Z,18.00
2019-02-22T23:04:01.715Z,15.40
2019-02-22T23:06:30.842Z,15.40
2019-02-22T23:08:58.686Z,15.30
2019-02-22T23:11:26.486Z,16.02
2019-02-22T23:13:54.339Z,14.68
2019-02-22T23:16:22.189Z,14.93
2019-02-22T23:19:01.143Z,16.23
2019-02-22T23:21:20.444Z,17.77
2019-02-22T23:23:48.354Z,18.80
2019-02-22T23:26:16.301Z,16.32
2019-02-22T23:28:44.337Z,15.78
2019-02-22T23:31:12.414Z,16.07
2019-02-22T23:33:40.267Z,14.35
2019-02-22T23:36:08.109Z,129.68
2019-02-22T23:38:35.963Z,228.88
2019-02-22T23:41:03.750Z,254.28
2019-02-22T23:43:31.645Z,18.05
2019-02-22T23:45:59.727Z,17.60
2019-02-22T23:48:27.595Z,18.92
2019-02-22T23:50:55.543Z,15.98
2019-02-22T23:53:23.445Z,15.88
2019-02-22T23:55:51.191Z,16.87
2019-02-22T23:58:19.008Z,16.27
